createdAt,value
2023-01-31T00:00:19.417Z,6.00
2023-01-31T00:02:22.335Z,5.64
2023-01-31T00:04:25.273Z,5.81
2023-01-31T00:06:29.439Z,5.59
2023-01-31T00:08:32.403Z,5.79
2023-01-31T00:10:37.289Z,5.63
2023-01-31T00:12:40.172Z,5.60
2023-01-31T00:14:42.963Z,5.64
2023-01-31T00:16:45.783Z,5.76
2023-01-31T00:18:49.018Z,5.66
2023-01-31T00:20:51.913Z,5.84
2023-01-31T00:22:54.785Z,5.74
2023-01-31T00:24:57.637Z,5.77
2023-01-31T00:27:01.836Z,5.87
2023-01-31T00:29:06.014Z,5.60
2023-01-31T00:31:09.743Z,5.63
2023-01-31T00:33:12.658Z,5.60
2023-01-31T00:35:16.436Z,5.73
2023-01-31T00:37:20.707Z,5.59
2023-01-31T00:39:23.684Z,5.53
2023-01-31T00:41:27.803Z,5.64
2023-01-31T00:43:32.368Z,5.60
2023-01-31T00:45:35.820Z,5.32
2023-01-31T00:47:39.237Z,5.46
2023-01-31T00:49:42.041Z,5.45
2023-01-31T00:51:45.029Z,5.38
2023-01-31T00:53:48.442Z,5.36
2023-01-31T00:55:51.618Z,5.52
2023-01-31T00:57:54.980Z,5.41
2023-01-31T00:59:59.226Z,5.33
2023-01-31T01:02:05.009Z,5.48
2023-01-31T01:04:08.392Z,5.54
2023-01-31T01:06:12.531Z,5.57
2023-01-31T01:08:18.079Z,5.58
2023-01-31T01:10:21.186Z,5.66
2023-01-31T01:12:24.120Z,5.65
2023-01-31T01:14:26.917Z,5.57
2023-01-31T01:16:34.391Z,5.59
2023-01-31T01:18:39.478Z,5.46
2023-01-31T01:20:42.317Z,5.41
2023-01-31T01:22:45.480Z,5.54
2023-01-31T01:24:48.349Z,5.61
2023-01-31T01:26:51.401Z,5.57
2023-01-31T01:28:55.397Z,5.53
2023-01-31T01:30:59.081Z,5.62
2023-01-31T01:33:03.406Z,5.60
2023-01-31T01:35:07.146Z,5.68
2023-01-31T01:37:11.999Z,5.72
2023-01-31T01:39:14.819Z,5.70
2023-01-31T01:41:19.021Z,5.69
2023-01-31T01:43:21.994Z,5.81
2023-01-31T01:45:26.130Z,5.75
2023-01-31T01:47:38.657Z,5.76
2023-01-31T01:49:43.370Z,5.76
2023-01-31T01:51:47.525Z,5.68
2023-01-31T01:53:54.233Z,5.49
2023-01-31T01:55:58.886Z,5.60
2023-01-31T01:58:09.851Z,5.39
2023-01-31T02:00:16.326Z,5.17
2023-01-31T02:02:20.030Z,5.28
2023-01-31T02:04:39.271Z,5.13
2023-01-31T02:06:44.392Z,5.33
2023-01-31T02:08:47.277Z,5.18
2023-01-31T02:10:53.584Z,5.35
2023-01-31T02:12:56.564Z,5.28
2023-01-31T02:18:34.251Z,5.39
2023-01-31T02:21:10.062Z,5.48
2023-01-31T02:23:27.448Z,5.52
2023-01-31T02:25:48.418Z,5.57
2023-01-31T02:28:05.687Z,5.45
2023-01-31T02:30:27.623Z,5.36
2023-01-31T02:32:51.399Z,5.48
2023-01-31T02:35:02.289Z,5.60
2023-01-31T02:37:18.184Z,5.53
2023-01-31T02:39:31.611Z,5.52
2023-01-31T02:41:39.599Z,5.61
2023-01-31T02:44:00.828Z,5.66
2023-01-31T02:46:09.381Z,5.56
2023-01-31T02:48:18.918Z,5.65
2023-01-31T02:50:30.897Z,5.58
2023-01-31T02:52:36.651Z,5.56
2023-01-31T02:55:08.211Z,5.56
2023-01-31T02:57:11.377Z,5.56
2023-01-31T02:59:18.665Z,5.42
2023-01-31T03:01:29.103Z,5.46
2023-01-31T03:03:35.837Z,5.19
2023-01-31T03:05:39.598Z,5.32
2023-01-31T03:07:44.002Z,5.33
2023-01-31T03:09:54.734Z,5.41
2023-01-31T03:12:06.362Z,5.48
2023-01-31T03:14:19.264Z,5.35
2023-01-31T03:16:46.331Z,5.26
2023-01-31T03:18:56.152Z,5.38
2023-01-31T03:21:03.341Z,5.30
2023-01-31T03:23:10.909Z,5.19
2023-01-31T03:25:16.998Z,5.21
2023-01-31T03:27:23.029Z,5.26
2023-01-31T03:29:30.833Z,5.28
2023-01-31T03:31:37.759Z,5.13
2023-01-31T03:33:44.475Z,5.19
2023-01-31T03:35:54.606Z,5.17
2023-01-31T03:38:02.121Z,5.13
2023-01-31T03:40:07.997Z,5.27
2023-01-31T03:42:14.168Z,5.21
2023-01-31T03:44:22.793Z,5.28
2023-01-31T03:46:28.902Z,5.22
2023-01-31T03:48:36.980Z,5.20
2023-01-31T03:50:42.806Z,5.21
2023-01-31T03:52:51.857Z,5.14
2023-01-31T03:54:58.148Z,5.25
2023-01-31T03:57:04.149Z,5.30
2023-01-31T03:59:10.000Z,5.32
2023-01-31T04:01:14.224Z,5.34
2023-01-31T04:03:19.953Z,5.26
2023-01-31T04:05:30.428Z,5.41
2023-01-31T04:07:33.541Z,5.42
2023-01-31T04:09:39.344Z,5.38
2023-01-31T04:11:44.519Z,5.43
2023-01-31T04:13:47.648Z,5.41
2023-01-31T04:15:50.529Z,5.42
2023-01-31T04:17:53.469Z,5.45
2023-01-31T04:19:56.654Z,5.42
2023-01-31T04:21:59.563Z,5.36
2023-01-31T04:24:02.384Z,5.35
2023-01-31T04:26:06.694Z,5.35
2023-01-31T04:28:09.815Z,5.32
2023-01-31T04:30:13.876Z,5.28
2023-01-31T04:32:16.792Z,5.35
2023-01-31T04:34:19.709Z,5.44
2023-01-31T04:36:22.521Z,5.42
2023-01-31T04:38:25.315Z,5.43
2023-01-31T04:40:28.406Z,5.42
2023-01-31T04:42:33.132Z,5.41
2023-01-31T04:44:36.173Z,5.32
2023-01-31T04:46:39.547Z,5.30
2023-01-31T04:48:42.362Z,5.30
2023-01-31T04:50:45.341Z,5.22
2023-01-31T04:52:50.654Z,5.40
2023-01-31T04:54:53.448Z,5.30
2023-01-31T04:56:56.264Z,5.26
2023-01-31T04:59:00.559Z,5.15
2023-01-31T05:01:03.724Z,5.20
2023-01-31T05:03:06.648Z,5.32
2023-01-31T05:05:12.803Z,5.32
2023-01-31T05:07:15.760Z,5.39
2023-01-31T05:09:18.596Z,5.39
2023-01-31T05:11:21.567Z,5.44
2023-01-31T05:13:25.305Z,5.27
2023-01-31T05:15:29.589Z,5.21
2023-01-31T05:17:32.651Z,5.16
2023-01-31T05:19:36.072Z,5.17
2023-01-31T05:21:55.023Z,5.27
2023-01-31T05:23:57.895Z,5.29
2023-01-31T05:26:00.701Z,5.23
2023-01-31T05:28:05.422Z,5.14
2023-01-31T05:30:09.904Z,5.26
2023-01-31T05:32:15.117Z,5.08
2023-01-31T05:34:18.111Z,5.13
2023-01-31T05:36:20.952Z,5.13
2023-01-31T05:38:23.833Z,5.13
2023-01-31T05:40:26.669Z,5.12
2023-01-31T05:42:29.480Z,5.17
2023-01-31T05:44:33.395Z,5.19
2023-01-31T05:46:36.275Z,5.27
2023-01-31T05:48:40.465Z,5.26
2023-01-31T05:50:43.329Z,5.29
2023-01-31T05:52:51.993Z,5.30
2023-01-31T05:54:54.837Z,5.31
2023-01-31T05:56:57.644Z,5.22
2023-01-31T05:59:02.685Z,5.31
2023-01-31T06:01:05.827Z,5.28
2023-01-31T06:03:09.811Z,5.41
2023-01-31T06:05:14.053Z,5.32
2023-01-31T06:07:16.967Z,5.38
2023-01-31T06:09:19.848Z,5.35
2023-01-31T06:11:22.704Z,5.33
2023-01-31T06:13:25.560Z,5.31
2023-01-31T06:15:28.748Z,5.35
2023-01-31T06:17:31.649Z,5.31
2023-01-31T06:19:34.814Z,5.41
2023-01-31T06:21:39.090Z,5.33
2023-01-31T06:23:46.037Z,5.42
2023-01-31T06:25:50.793Z,5.36
2023-01-31T06:27:53.703Z,5.38
2023-01-31T06:29:56.690Z,5.37
2023-01-31T06:31:59.837Z,5.33
2023-01-31T06:34:03.591Z,5.49
2023-01-31T06:36:07.112Z,5.50
2023-01-31T06:38:12.472Z,5.39
2023-01-31T06:40:15.568Z,5.43
2023-01-31T06:42:18.613Z,5.48
2023-01-31T06:44:21.685Z,5.36
2023-01-31T06:46:24.805Z,5.46
2023-01-31T06:48:27.774Z,5.49
2023-01-31T06:50:30.686Z,5.44
2023-01-31T06:52:33.720Z,5.43
2023-01-31T06:54:38.406Z,5.48
2023-01-31T06:56:41.692Z,5.35
2023-01-31T06:58:44.590Z,5.37
2023-01-31T07:00:47.921Z,5.43
2023-01-31T07:02:50.750Z,5.57
2023-01-31T07:04:54.108Z,5.60
2023-01-31T07:06:57.479Z,5.55
2023-01-31T07:09:00.357Z,5.61
2023-01-31T07:11:04.818Z,5.66
2023-01-31T07:13:07.684Z,5.51
2023-01-31T07:15:11.813Z,5.55
2023-01-31T07:17:14.727Z,5.83
2023-01-31T07:19:17.953Z,5.76
2023-01-31T07:21:20.809Z,5.74
2023-01-31T07:23:23.697Z,5.88
2023-01-31T07:25:26.583Z,5.95
2023-01-31T07:27:31.242Z,5.91
2023-01-31T07:29:34.085Z,5.77
2023-01-31T07:31:37.187Z,5.91
2023-01-31T07:33:41.035Z,6.01
2023-01-31T07:35:44.386Z,6.01
2023-01-31T07:37:47.241Z,5.94
2023-01-31T07:39:50.609Z,6.08
2023-01-31T07:41:53.477Z,6.10
2023-01-31T07:44:01.266Z,6.06
2023-01-31T07:46:08.991Z,6.05
2023-01-31T07:48:11.899Z,5.91
2023-01-31T07:50:14.799Z,6.11
2023-01-31T07:52:17.771Z,6.05
2023-01-31T07:54:20.689Z,6.07
2023-01-31T07:56:23.872Z,5.96
2023-01-31T07:58:26.978Z,5.97
2023-01-31T08:00:48.804Z,5.90
2023-01-31T08:03:09.186Z,5.96
2023-01-31T08:05:12.103Z,6.02
2023-01-31T08:07:15.110Z,5.91
2023-01-31T08:09:18.044Z,5.94
2023-01-31T08:11:20.867Z,5.83
2023-01-31T08:13:23.748Z,5.82
2023-01-31T08:15:26.633Z,5.89
2023-01-31T08:17:31.119Z,5.93
2023-01-31T08:19:34.350Z,6.04
2023-01-31T08:21:37.163Z,6.11
2023-01-31T08:23:41.147Z,5.88
2023-01-31T08:25:44.501Z,5.91
2023-01-31T08:27:47.603Z,6.07
2023-01-31T08:29:50.412Z,6.15
2023-01-31T08:31:54.239Z,6.03
2023-01-31T08:33:58.555Z,6.10
2023-01-31T08:36:10.129Z,6.16
2023-01-31T08:38:16.710Z,6.28
2023-01-31T08:40:19.874Z,6.04
2023-01-31T08:42:22.680Z,6.18
2023-01-31T08:44:25.483Z,6.13
2023-01-31T08:46:31.426Z,6.41
2023-01-31T08:48:34.743Z,6.28
2023-01-31T08:50:40.499Z,6.30
2023-01-31T08:52:43.510Z,6.36
2023-01-31T08:54:46.540Z,6.46
2023-01-31T08:56:49.345Z,6.43
2023-01-31T08:58:52.200Z,6.24
2023-01-31T09:00:55.355Z,6.13
2023-01-31T09:02:59.766Z,6.18
2023-01-31T09:05:02.639Z,6.03
2023-01-31T09:07:06.921Z,6.18
2023-01-31T09:09:10.792Z,6.12
2023-01-31T09:11:19.071Z,5.64
2023-01-31T09:13:22.468Z,5.68
2023-01-31T09:15:25.345Z,5.82
2023-01-31T09:17:28.663Z,5.90
2023-01-31T09:19:31.583Z,6.04
2023-01-31T09:21:34.771Z,5.61
2023-01-31T09:23:42.382Z,5.84
2023-01-31T09:25:47.802Z,5.98
2023-01-31T09:27:53.579Z,5.91
2023-01-31T09:29:56.587Z,5.91
2023-01-31T09:31:59.854Z,5.89
2023-01-31T09:34:02.862Z,6.00
2023-01-31T09:36:07.347Z,5.99
2023-01-31T09:38:10.247Z,5.91
2023-01-31T09:40:18.108Z,5.82
2023-01-31T09:42:24.987Z,5.85
2023-01-31T09:44:30.707Z,5.89
2023-01-31T09:46:37.299Z,5.77
2023-01-31T09:48:43.110Z,5.68
2023-01-31T09:50:48.948Z,5.79
2023-01-31T09:52:51.944Z,5.82
2023-01-31T09:54:55.142Z,5.75
2023-01-31T09:57:08.658Z,5.75
2023-01-31T09:59:19.031Z,5.91
2023-01-31T10:01:24.924Z,5.90
2023-01-31T10:03:42.127Z,5.92
2023-01-31T10:05:49.840Z,6.01
2023-01-31T10:08:01.957Z,5.98
2023-01-31T10:10:13.521Z,6.04
2023-01-31T10:12:21.342Z,5.92
2023-01-31T10:14:31.699Z,6.04
2023-01-31T10:16:38.748Z,5.97
2023-01-31T10:18:44.322Z,6.16
2023-01-31T10:20:50.893Z,6.14
2023-01-31T10:22:57.536Z,6.15
2023-01-31T10:25:17.852Z,6.19
2023-01-31T10:27:32.024Z,6.06
2023-01-31T10:29:36.731Z,6.19
2023-01-31T10:31:44.278Z,5.99
2023-01-31T10:33:51.502Z,6.00
2023-01-31T10:35:56.286Z,5.99
2023-01-31T10:38:02.559Z,5.85
2023-01-31T10:40:14.185Z,6.00
2023-01-31T10:42:23.355Z,5.98
2023-01-31T10:44:32.536Z,6.01
2023-01-31T10:46:35.406Z,6.15
2023-01-31T10:48:38.551Z,6.16
2023-01-31T10:50:46.403Z,6.09
2023-01-31T10:52:59.077Z,6.14
2023-01-31T10:55:11.015Z,6.03
2023-01-31T10:57:13.813Z,6.04
2023-01-31T10:59:23.868Z,6.14
2023-01-31T11:01:26.804Z,6.06
2023-01-31T11:03:29.815Z,6.06
2023-01-31T11:05:33.064Z,6.06
2023-01-31T11:07:36.046Z,6.06
2023-01-31T11:09:43.196Z,6.15
2023-01-31T11:11:56.226Z,5.93
2023-01-31T11:14:01.189Z,6.11
2023-01-31T11:16:09.317Z,6.15
2023-01-31T11:18:16.346Z,6.08
2023-01-31T11:20:23.825Z,6.16
2023-01-31T11:22:31.861Z,6.08
2023-01-31T11:24:35.991Z,6.29
2023-01-31T11:26:39.948Z,6.23
2023-01-31T11:28:43.064Z,6.21
2023-01-31T11:30:49.154Z,6.34
2023-01-31T11:32:53.795Z,6.35
2023-01-31T11:34:59.097Z,6.29
2023-01-31T11:37:14.994Z,6.30
2023-01-31T11:39:31.575Z,6.42
2023-01-31T11:41:37.051Z,6.36
2023-01-31T11:43:40.861Z,6.45
2023-01-31T11:45:46.231Z,6.41
2023-01-31T11:47:51.869Z,6.45
2023-01-31T11:49:56.107Z,6.53
2023-01-31T11:52:01.145Z,6.59
2023-01-31T11:54:06.052Z,6.64
2023-01-31T11:56:13.354Z,6.72
2023-01-31T11:58:19.854Z,6.70
2023-01-31T12:00:25.020Z,6.64
2023-01-31T12:02:37.049Z,6.58
2023-01-31T12:04:42.670Z,6.70
2023-01-31T12:06:57.858Z,6.73
2023-01-31T12:09:02.146Z,6.64
2023-01-31T12:11:06.587Z,6.60
2023-01-31T12:13:19.280Z,6.64
2023-01-31T12:15:22.482Z,6.65
2023-01-31T12:17:30.409Z,6.77
2023-01-31T12:19:44.059Z,6.82
2023-01-31T12:21:55.531Z,6.79
2023-01-31T12:24:06.763Z,6.64
2023-01-31T12:26:12.969Z,6.69
2023-01-31T12:30:57.654Z,6.63
2023-01-31T12:33:14.545Z,6.62
2023-01-31T12:35:32.354Z,6.81
2023-01-31T12:37:48.548Z,6.63
2023-01-31T12:40:11.927Z,6.70
2023-01-31T12:42:46.249Z,6.82
2023-01-31T12:44:51.193Z,6.78
2023-01-31T12:47:16.173Z,6.85
2023-01-31T12:49:29.395Z,6.64
2023-01-31T12:51:44.701Z,6.74
2023-01-31T12:53:56.127Z,6.86
2023-01-31T12:56:11.621Z,6.72
2023-01-31T12:58:32.984Z,6.76
2023-01-31T13:00:41.578Z,6.90
2023-01-31T13:02:53.101Z,6.84
2023-01-31T13:04:59.952Z,6.81
2023-01-31T13:07:06.090Z,6.77
2023-01-31T13:09:13.636Z,6.82
2023-01-31T13:11:20.665Z,6.90
2023-01-31T13:13:26.518Z,6.99
2023-01-31T13:15:33.808Z,6.77
2023-01-31T13:17:40.728Z,6.87
2023-01-31T13:19:49.822Z,6.79
2023-01-31T13:21:57.069Z,6.93
2023-01-31T13:24:02.949Z,6.89
2023-01-31T13:26:11.974Z,6.77
2023-01-31T13:28:18.539Z,6.97
2023-01-31T13:30:28.057Z,6.99
2023-01-31T13:32:38.915Z,6.98
2023-01-31T13:34:51.469Z,6.95
2023-01-31T13:36:58.631Z,7.06
2023-01-31T13:39:03.980Z,7.03
2023-01-31T13:41:10.759Z,6.86
2023-01-31T13:43:15.396Z,6.84
2023-01-31T13:45:24.262Z,6.84
2023-01-31T13:47:30.395Z,6.83
2023-01-31T13:49:37.157Z,6.78
2023-01-31T13:51:43.672Z,6.88
2023-01-31T13:53:49.605Z,6.83
2023-01-31T13:55:53.616Z,6.77
2023-01-31T13:58:00.241Z,6.72
2023-01-31T14:00:07.786Z,6.79
2023-01-31T14:02:19.478Z,6.72
2023-01-31T14:04:28.769Z,6.93
2023-01-31T14:06:55.839Z,6.79
2023-01-31T14:08:59.707Z,6.64
2023-01-31T14:11:03.578Z,6.64
2023-01-31T14:13:38.775Z,6.65
2023-01-31T14:15:49.623Z,6.79
2023-01-31T14:18:01.490Z,6.79
2023-01-31T14:20:07.318Z,6.58
2023-01-31T14:22:16.661Z,6.78
2023-01-31T14:24:21.983Z,6.59
2023-01-31T14:26:37.980Z,6.66
2023-01-31T14:28:45.374Z,6.81
2023-01-31T14:30:48.884Z,6.77
2023-01-31T14:33:04.035Z,6.84
2023-01-31T14:35:23.368Z,6.70
2023-01-31T14:37:35.893Z,6.62
2023-01-31T14:40:01.909Z,6.69
2023-01-31T14:42:27.281Z,6.83
2023-01-31T14:44:38.904Z,6.81
2023-01-31T14:47:12.764Z,6.86
2023-01-31T14:49:38.975Z,6.84
2023-01-31T14:51:54.239Z,6.88
2023-01-31T14:54:33.935Z,6.89
2023-01-31T14:56:52.442Z,6.85
2023-01-31T14:58:55.886Z,6.81
2023-01-31T15:01:02.200Z,6.95
2023-01-31T15:03:07.064Z,7.03
2023-01-31T15:05:13.848Z,6.94
2023-01-31T15:07:17.383Z,6.83
2023-01-31T15:09:36.378Z,6.97
2023-01-31T15:11:43.062Z,7.09
2023-01-31T15:13:48.320Z,6.91
2023-01-31T15:15:52.134Z,6.97
2023-01-31T15:17:57.913Z,6.97
2023-01-31T15:20:07.523Z,6.92
2023-01-31T15:22:11.968Z,7.05
2023-01-31T15:24:18.501Z,7.06
2023-01-31T15:26:21.826Z,7.06
2023-01-31T15:28:28.634Z,7.09
2023-01-31T15:30:34.343Z,7.17
2023-01-31T15:32:41.654Z,7.22
2023-01-31T15:34:52.229Z,7.21
2023-01-31T15:37:02.334Z,7.15
2023-01-31T15:39:08.636Z,7.18
2023-01-31T15:41:20.135Z,7.11
2023-01-31T15:43:24.716Z,7.22
2023-01-31T15:45:29.741Z,7.27
2023-01-31T15:47:32.858Z,7.21
2023-01-31T15:49:44.353Z,7.30
2023-01-31T15:52:04.113Z,7.29
2023-01-31T15:54:08.864Z,7.39
2023-01-31T15:56:18.777Z,7.37
2023-01-31T15:58:24.231Z,7.28
2023-01-31T16:00:29.781Z,7.26
2023-01-31T16:02:34.472Z,7.29
2023-01-31T16:04:41.179Z,7.41
2023-01-31T16:06:44.073Z,7.33
2023-01-31T16:08:53.799Z,7.36
2023-01-31T16:10:57.647Z,7.42
2023-01-31T16:13:02.033Z,7.35
2023-01-31T16:15:07.274Z,7.48
2023-01-31T16:17:10.780Z,7.28
2023-01-31T16:19:16.714Z,7.49
2023-01-31T16:21:26.955Z,7.52
2023-01-31T16:23:31.539Z,7.56
2023-01-31T16:25:37.138Z,7.63
2023-01-31T16:27:45.335Z,7.66
2023-01-31T16:29:49.565Z,7.68
2023-01-31T16:31:54.541Z,7.63
2023-01-31T16:33:59.089Z,7.72
2023-01-31T16:36:13.174Z,7.61
2023-01-31T16:38:20.367Z,7.50
2023-01-31T16:40:27.829Z,7.58
2023-01-31T16:42:35.176Z,7.61
2023-01-31T16:44:41.504Z,7.68
2023-01-31T16:46:46.393Z,7.71
2023-01-31T16:49:03.244Z,7.71
2023-01-31T16:51:39.156Z,7.54
2023-01-31T16:53:42.089Z,7.70
2023-01-31T16:55:45.746Z,7.72
2023-01-31T16:57:49.995Z,7.75
2023-01-31T16:59:54.500Z,7.72
2023-01-31T17:02:02.651Z,7.63
2023-01-31T17:04:15.358Z,7.82
2023-01-31T17:06:22.538Z,7.78
2023-01-31T17:08:25.426Z,7.82
2023-01-31T17:10:30.180Z,7.82
2023-01-31T17:12:35.171Z,7.85
2023-01-31T17:14:39.456Z,7.87
2023-01-31T17:16:42.335Z,7.87
2023-01-31T17:18:45.213Z,7.91
2023-01-31T17:20:50.804Z,7.98
2023-01-31T17:23:02.454Z,8.09
2023-01-31T17:25:15.079Z,8.13
2023-01-31T17:27:19.315Z,8.04
2023-01-31T17:29:23.258Z,8.09
2023-01-31T17:31:29.702Z,8.02
2023-01-31T17:33:32.702Z,8.11
2023-01-31T17:35:37.722Z,8.09
2023-01-31T17:37:40.687Z,7.93
2023-01-31T17:39:43.613Z,8.11
2023-01-31T17:41:46.996Z,7.99
2023-01-31T17:43:49.939Z,8.02
2023-01-31T17:45:53.000Z,8.10
2023-01-31T17:47:57.692Z,8.08
2023-01-31T17:50:00.542Z,7.99
2023-01-31T17:52:03.456Z,8.01
2023-01-31T17:54:06.485Z,7.98
2023-01-31T17:56:09.393Z,8.10
2023-01-31T17:58:13.590Z,7.97
2023-01-31T18:00:18.470Z,7.92
2023-01-31T18:02:21.600Z,7.82
2023-01-31T18:04:25.846Z,8.01
2023-01-31T18:06:28.693Z,7.93
2023-01-31T18:08:31.590Z,7.94
2023-01-31T18:10:34.473Z,8.01
2023-01-31T18:12:37.552Z,8.07
2023-01-31T18:14:40.548Z,8.04
2023-01-31T18:16:43.679Z,8.07
2023-01-31T18:18:46.713Z,8.00
2023-01-31T18:20:50.992Z,8.05
2023-01-31T18:22:53.837Z,7.93
2023-01-31T18:24:57.249Z,7.92
2023-01-31T18:27:00.141Z,8.01
2023-01-31T18:29:02.994Z,8.05
2023-01-31T18:31:08.031Z,8.05
2023-01-31T18:33:11.092Z,7.99
2023-01-31T18:35:14.023Z,7.97
2023-01-31T18:37:20.560Z,7.82
2023-01-31T18:39:23.596Z,7.86
2023-01-31T18:41:26.734Z,7.73
2023-01-31T18:43:30.782Z,7.88
2023-01-31T18:45:33.626Z,7.66
2023-01-31T18:47:36.536Z,7.85
2023-01-31T18:49:39.588Z,7.97
2023-01-31T18:51:42.785Z,7.97
2023-01-31T18:53:48.031Z,7.99
2023-01-31T18:55:59.832Z,8.05
2023-01-31T18:58:02.739Z,8.10
2023-01-31T19:00:06.464Z,8.10
2023-01-31T19:02:10.982Z,8.14
2023-01-31T19:04:13.949Z,8.12
2023-01-31T19:06:18.709Z,8.10
2023-01-31T19:08:21.552Z,8.01
2023-01-31T19:10:25.794Z,8.03
2023-01-31T19:12:28.751Z,8.05
2023-01-31T19:14:31.666Z,7.97
2023-01-31T19:16:37.122Z,7.87
2023-01-31T19:18:40.783Z,8.02
2023-01-31T19:20:43.903Z,8.03
2023-01-31T19:22:46.777Z,8.03
2023-01-31T19:24:49.634Z,8.00
2023-01-31T19:26:54.252Z,7.98
2023-01-31T19:28:58.545Z,7.90
2023-01-31T19:31:05.193Z,7.85
2023-01-31T19:33:08.414Z,7.79
2023-01-31T19:35:11.446Z,7.61
2023-01-31T19:37:14.348Z,7.68
2023-01-31T19:39:17.211Z,7.57
2023-01-31T19:41:22.094Z,7.62
2023-01-31T19:43:26.287Z,7.65
2023-01-31T19:45:29.446Z,7.58
2023-01-31T19:47:34.013Z,7.58
2023-01-31T19:49:36.940Z,7.54
2023-01-31T19:51:41.387Z,7.53
2023-01-31T19:53:45.305Z,7.55
2023-01-31T19:55:50.018Z,7.51
2023-01-31T19:57:52.897Z,7.45
2023-01-31T19:59:58.270Z,7.47
2023-01-31T20:02:01.159Z,7.43
2023-01-31T20:04:04.034Z,7.45
2023-01-31T20:06:08.825Z,7.41
2023-01-31T20:08:11.677Z,7.32
2023-01-31T20:10:15.161Z,7.41
2023-01-31T20:12:18.027Z,7.24
2023-01-31T20:14:21.023Z,7.20
2023-01-31T20:16:28.990Z,7.26
2023-01-31T20:18:32.042Z,7.16
2023-01-31T20:20:34.910Z,7.09
2023-01-31T20:22:37.999Z,7.14
2023-01-31T20:24:40.853Z,7.15
2023-01-31T20:26:43.788Z,7.12
2023-01-31T20:28:46.813Z,7.08
2023-01-31T20:30:50.082Z,7.07
2023-01-31T20:32:54.611Z,7.15
2023-01-31T20:34:57.651Z,7.19
2023-01-31T20:37:00.469Z,7.16
2023-01-31T20:39:04.230Z,7.12
2023-01-31T20:41:08.487Z,7.07
2023-01-31T20:43:11.458Z,7.11
2023-01-31T20:45:14.431Z,7.12
2023-01-31T20:47:17.285Z,7.07
2023-01-31T20:49:22.477Z,7.03
2023-01-31T20:51:25.384Z,7.10
2023-01-31T20:53:29.721Z,7.09
2023-01-31T20:55:32.803Z,7.01
2023-01-31T20:57:35.645Z,6.92
2023-01-31T20:59:38.795Z,6.94
2023-01-31T21:01:43.189Z,6.88
2023-01-31T21:03:46.277Z,6.79
2023-01-31T21:05:50.716Z,6.83
2023-01-31T21:07:53.608Z,6.88
2023-01-31T21:09:56.706Z,6.79
2023-01-31T21:12:00.927Z,6.65
2023-01-31T21:14:04.025Z,6.65
2023-01-31T21:16:08.815Z,6.78
2023-01-31T21:18:11.917Z,6.61
2023-01-31T21:20:14.901Z,6.59
2023-01-31T21:22:19.235Z,6.59
2023-01-31T21:24:22.452Z,6.55
2023-01-31T21:26:26.806Z,6.46
2023-01-31T21:28:29.937Z,6.44
2023-01-31T21:30:33.312Z,6.42
2023-01-31T21:32:36.208Z,6.36
2023-01-31T21:34:40.905Z,6.33
2023-01-31T21:36:45.762Z,6.35
2023-01-31T21:38:51.144Z,6.31
2023-01-31T21:41:15.045Z,6.28
2023-01-31T21:43:16.953Z,6.23
2023-01-31T21:45:39.280Z,6.23
2023-01-31T21:47:56.145Z,6.27
2023-01-31T21:49:59.140Z,6.36
2023-01-31T21:52:01.964Z,6.40
2023-01-31T21:54:06.473Z,6.37
2023-01-31T21:56:10.520Z,6.34
2023-01-31T21:58:13.353Z,6.32
2023-01-31T22:00:17.614Z,6.37
2023-01-31T22:02:20.478Z,6.38
2023-01-31T22:04:23.561Z,6.35
2023-01-31T22:06:30.983Z,6.21
2023-01-31T22:08:34.523Z,6.22
2023-01-31T22:10:39.164Z,6.33
2023-01-31T22:12:41.998Z,6.29
2023-01-31T22:14:44.869Z,6.31
2023-01-31T22:16:49.489Z,6.33
2023-01-31T22:18:52.984Z,6.27
2023-01-31T22:21:01.911Z,6.14
2023-01-31T22:23:04.740Z,6.26
2023-01-31T22:25:08.360Z,6.25
2023-01-31T22:27:12.931Z,6.29
2023-01-31T22:29:16.586Z,6.26
2023-01-31T22:31:19.797Z,6.27
2023-01-31T22:33:22.764Z,6.30
2023-01-31T22:35:26.524Z,6.27
2023-01-31T22:37:29.581Z,5.99
2023-01-31T22:39:32.483Z,6.08
2023-01-31T22:41:35.307Z,6.17
2023-01-31T22:43:40.782Z,6.16
2023-01-31T22:45:46.839Z,6.13
2023-01-31T22:47:49.664Z,6.12
2023-01-31T22:49:52.574Z,6.15
2023-01-31T22:51:55.475Z,6.21
2023-01-31T22:53:59.376Z,6.15
2023-01-31T22:56:03.485Z,6.23
2023-01-31T22:58:06.375Z,6.21
2023-01-31T23:00:12.355Z,6.03
2023-01-31T23:02:15.519Z,6.07
2023-01-31T23:04:19.338Z,6.23
2023-01-31T23:06:22.223Z,6.09
2023-01-31T23:08:25.107Z,6.21
2023-01-31T23:10:28.393Z,6.19
2023-01-31T23:12:31.360Z,6.04
2023-01-31T23:14:34.170Z,5.99
2023-01-31T23:16:55.784Z,6.07
2023-01-31T23:18:58.621Z,5.95
2023-01-31T23:21:08.578Z,6.16
2023-01-31T23:23:11.436Z,6.04
2023-01-31T23:25:15.630Z,6.10
2023-01-31T23:27:18.769Z,6.03
2023-01-31T23:29:21.656Z,6.18
2023-01-31T23:31:24.684Z,6.02
2023-01-31T23:33:29.352Z,6.14
2023-01-31T23:35:32.250Z,6.18
2023-01-31T23:37:35.088Z,6.14
2023-01-31T23:39:38.101Z,6.14
2023-01-31T23:41:40.979Z,6.18
2023-01-31T23:43:43.918Z,6.13
2023-01-31T23:45:46.866Z,6.20
2023-01-31T23:47:50.388Z,6.24
2023-01-31T23:49:54.686Z,6.36
2023-01-31T23:51:57.618Z,6.27
2023-01-31T23:54:00.518Z,6.28
2023-01-31T23:56:03.416Z,6.27
2023-01-31T23:58:06.755Z,6.28
